Time;durP1;ratioP1;P1;durP2;ratioP2;P2;SDS_P1;SDS_P2;PMS_P1;PMS_P2;Temp;Humidity;BMP_temperature;BMP_pressure;BME280_temperature;BME280_humidity;BME280_pressure;Samples;Min_cycle;Max_cycle;Signal;HPM_P1;HPM_P2
2022/03/19 00:00:03;;;;;;;325.13;77.38;;;;;;;1.98;51.64;101969.44;342594;28;955;-70
2022/03/19 00:00:15;;;;;;;324.63;75.63;;;;;;;2.00;51.35;101967.78;343623;28;1299;-70
2022/03/19 00:00:25;;;;;;;325.90;75.50;;;;;;;2.00;51.41;101972.94;341559;28;1983;-70
2022/03/19 00:00:35;;;;;;;324.93;75.63;;;;;;;2.01;51.83;101968.66;342363;28;991;-70
2022/03/19 00:00:46;;;;;;;324.17;75.50;;;;;;;1.99;51.57;101970.31;343279;28;1211;-70
2022/03/19 00:00:58;;;;;;;323.93;75.87;;;;;;;1.97;51.50;101966.81;342584;28;1188;-70
2022/03/19 00:01:08;;;;;;;325.40;76.40;;;;;;;1.92;52.28;101965.78;342512;28;878;-70
2022/03/19 00:01:18;;;;;;;328.20;77.35;;;;;;;1.92;51.46;101968.38;339598;29;1081;-70
2022/03/19 00:01:29;;;;;;;328.20;76.87;;;;;;;1.90;52.09;101970.91;341124;28;1167;-70
2022/03/19 00:01:39;;;;;;;328.13;76.73;;;;;;;1.91;51.84;101976.94;342528;28;790;-70
2022/03/19 00:01:50;;;;;;;326.20;76.68;;;;;;;1.87;52.08;101975.09;343755;28;1366;-70
2022/03/19 00:02:01;;;;;;;327.98;77.68;;;;;;;1.88;51.91;101966.50;342408;28;932;-70
2022/03/19 00:02:11;;;;;;;327.73;77.93;;;;;;;1.89;51.76;101970.84;342281;28;869;-70
2022/03/19 00:02:22;;;;;;;327.37;77.40;;;;;;;1.89;52.00;101969.16;339627;28;1401;-70
2022/03/19 00:02:32;;;;;;;326.37;76.10;;;;;;;1.91;52.24;101976.94;342243;28;1229;-70
2022/03/19 00:02:43;;;;;;;327.10;76.70;;;;;;;1.88;51.79;101971.69;342378;28;1154;-69
2022/03/19 00:02:54;;;;;;;326.05;76.40;;;;;;;1.86;52.42;101969.03;343742;28;1495;-69
2022/03/19 00:03:04;;;;;;;326.27;77.57;;;;;;;1.88;51.87;101976.84;342501;28;794;-69
2022/03/19 00:03:15;;;;;;;324.73;76.65;;;;;;;1.89;51.67;101973.44;337883;29;2220;-69
2022/03/19 00:03:26;;;;;;;324.93;76.97;;;;;;;1.90;52.15;101965.72;338508;29;1500;-69
2022/03/19 00:03:36;;;;;;;324.08;76.30;;;;;;;1.89;52.41;101968.25;342434;28;1296;-69
2022/03/19 00:03:47;;;;;;;325.10;76.88;;;;;;;1.89;52.37;101968.25;342991;28;1544;-69
2022/03/19 00:03:57;;;;;;;326.70;78.47;;;;;;;1.91;52.22;101966.63;339359;28;1002;-69
2022/03/19 00:04:07;;;;;;;327.98;79.10;;;;;;;1.93;51.99;101964.97;341595;28;1298;-69
2022/03/19 00:04:18;;;;;;;326.37;78.10;;;;;;;1.95;52.71;101965.88;341402;28;1527;-69
2022/03/19 00:04:28;;;;;;;325.30;76.30;;;;;;;1.96;51.23;101970.22;343666;28;1581;-69
2022/03/19 00:04:39;;;;;;;326.17;75.53;;;;;;;1.94;52.25;101967.59;341039;28;792;-69
2022/03/19 00:04:49;;;;;;;324.27;74.20;;;;;;;1.95;51.83;101971.03;339805;29;1569;-69
2022/03/19 00:04:59;;;;;;;324.90;75.90;;;;;;;1.95;51.83;101971.94;339772;29;803;-69
2022/03/19 00:05:10;;;;;;;324.35;76.45;;;;;;;1.98;52.18;101968.56;340790;28;905;-69
2022/03/19 00:05:21;;;;;;;325.13;77.03;;;;;;;1.99;51.66;101960.00;340906;28;1586;-70
2022/03/19 00:05:31;;;;;;;326.45;75.03;;;;;;;2.01;51.67;101968.66;339723;28;1266;-69
2022/03/19 00:05:41;;;;;;;328.93;74.87;;;;;;;2.01;52.61;101968.66;343820;28;960;-69
2022/03/19 00:05:52;;;;;;;330.53;75.40;;;;;;;2.00;51.87;101966.91;343735;28;1500;-69
2022/03/19 00:06:02;;;;;;;329.63;75.80;;;;;;;2.01;51.60;101960.91;343702;28;1177;-69
2022/03/19 00:06:12;;;;;;;328.08;75.15;;;;;;;2.02;51.82;101966.97;343539;28;1066;-70
2022/03/19 00:06:23;;;;;;;328.37;75.17;;;;;;;2.00;51.78;101961.75;343804;28;1023;-70
2022/03/19 00:06:37;;;;;;;328.38;75.72;;;;;;;1.99;51.94;101960.00;339639;29;921;-70
2022/03/19 00:06:48;;;;;;;328.17;76.85;;;;;;;1.98;52.01;101960.81;339708;29;1000;-69
2022/03/19 00:06:58;;;;;;;326.83;76.78;;;;;;;1.98;52.26;101965.97;341104;28;913;-69
2022/03/19 00:07:08;;;;;;;327.77;77.33;;;;;;;2.00;52.15;101961.75;342179;28;1302;-69
2022/03/19 00:07:19;;;;;;;328.48;76.97;;;;;;;1.99;51.89;101962.56;339628;29;1501;-70
2022/03/19 00:07:29;;;;;;;329.10;76.43;;;;;;;2.01;52.42;101966.06;341044;28;915;-69
2022/03/19 00:07:40;;;;;;;328.17;75.75;;;;;;;2.02;51.92;101967.84;341041;28;988;-69
2022/03/19 00:07:51;;;;;;;326.77;75.07;;;;;;;2.02;52.35;101962.66;339515;28;902;-69
2022/03/19 00:08:01;;;;;;;327.87;75.27;;;;;;;2.04;52.62;101963.59;342079;28;1872;-69
2022/03/19 00:08:12;;;;;;;327.00;75.82;;;;;;;2.03;52.28;101959.25;341983;28;1421;-69
2022/03/19 00:08:23;;;;;;;327.17;76.50;;;;;;;2.04;52.32;101963.59;338096;29;973;-69
2022/03/19 00:08:33;;;;;;;324.83;76.05;;;;;;;2.03;52.42;101960.97;340825;28;1345;-69
2022/03/19 00:08:44;;;;;;;327.10;76.17;;;;;;;2.01;52.18;101963.50;340489;28;1576;-70
2022/03/19 00:08:55;;;;;;;326.98;76.25;;;;;;;2.01;53.07;101963.50;340541;28;924;-70
2022/03/19 00:09:06;;;;;;;326.48;76.60;;;;;;;1.99;52.09;101960.88;340350;28;845;-69
2022/03/19 00:09:17;;;;;;;324.95;77.32;;;;;;;2.01;52.39;101960.91;337642;29;948;-69
2022/03/19 00:09:27;;;;;;;323.98;76.55;;;;;;;2.00;52.47;101966.91;341222;28;1300;-69
2022/03/19 00:09:39;;;;;;;323.67;75.10;;;;;;;2.03;52.20;101967.00;343572;28;1570;-69
2022/03/19 00:09:49;;;;;;;323.95;74.57;;;;;;;2.03;51.95;101966.13;342919;28;884;-69
2022/03/19 00:09:59;;;;;;;325.13;74.60;;;;;;;2.03;51.96;101961.84;341363;28;893;-69
2022/03/19 00:10:11;;;;;;;324.90;74.47;;;;;;;2.00;52.51;101962.63;340957;28;1270;-69
2022/03/19 00:10:22;;;;;;;325.50;74.32;;;;;;;2.01;52.30;101968.66;339586;29;2323;-69
2022/03/19 00:10:32;;;;;;;326.15;75.03;;;;;;;1.98;52.07;101956.53;338218;29;950;-69
2022/03/19 00:10:43;;;;;;;326.63;75.13;;;;;;;1.98;52.53;101968.56;341035;28;1285;-69
2022/03/19 00:10:53;;;;;;;322.85;74.13;;;;;;;1.99;52.63;101965.16;341780;28;3407;-70
2022/03/19 00:11:04;;;;;;;323.47;74.80;;;;;;;1.99;52.11;101963.44;341916;28;1419;-70
2022/03/19 00:11:14;;;;;;;324.02;74.95;;;;;;;2.00;52.53;101966.91;342321;28;1203;-70
2022/03/19 00:11:25;;;;;;;325.23;76.07;;;;;;;1.99;51.98;101960.00;338234;29;1322;-70
2022/03/19 00:11:35;;;;;;;324.92;76.32;;;;;;;1.99;51.76;101970.31;341153;28;947;-69
2022/03/19 00:11:46;;;;;;;326.53;76.97;;;;;;;1.89;52.30;101960.53;343729;28;970;-69
2022/03/19 00:11:56;;;;;;;324.88;75.85;;;;;;;1.91;52.76;101969.19;343815;28;834;-69
2022/03/19 00:12:08;;;;;;;324.58;75.72;;;;;;;1.91;51.70;101969.19;343711;28;1015;-69
2022/03/19 00:12:18;;;;;;;323.50;74.60;;;;;;;1.87;52.37;101964.75;343892;28;821;-70
2022/03/19 00:12:28;;;;;;;325.20;75.50;;;;;;;1.88;52.23;101967.38;343335;28;958;-70
2022/03/19 00:12:39;;;;;;;325.57;77.13;;;;;;;1.88;52.19;101959.63;339027;29;895;-70
2022/03/19 00:12:49;;;;;;;326.17;77.78;;;;;;;1.90;52.23;101968.31;340588;28;2557;-70
2022/03/19 00:13:00;;;;;;;329.40;78.40;;;;;;;1.91;52.50;101971.78;342259;28;1477;-70
2022/03/19 00:13:10;;;;;;;331.17;77.68;;;;;;;1.89;52.19;101968.25;342199;28;1525;-70
2022/03/19 00:13:21;;;;;;;330.00;76.57;;;;;;;1.88;52.46;101971.69;339886;29;1047;-70
2022/03/19 00:13:31;;;;;;;329.08;77.20;;;;;;;1.85;52.35;101966.41;339395;29;1551;-70
2022/03/19 00:13:42;;;;;;;327.23;76.67;;;;;;;1.83;52.34;101962.91;338133;29;1498;-70
2022/03/19 00:13:52;;;;;;;327.10;76.82;;;;;;;1.81;52.39;101967.13;339688;28;1664;-70
2022/03/19 00:14:03;;;;;;;323.97;76.60;;;;;;;1.77;52.78;101958.41;342055;28;895;-70
2022/03/19 00:14:14;;;;;;;325.48;77.47;;;;;;;1.78;53.24;101965.31;339642;28;853;-70
2022/03/19 00:14:24;;;;;;;330.25;76.65;;;;;;;1.81;52.24;101962.84;342493;28;1231;-70
2022/03/19 00:14:35;;;;;;;330.98;75.72;;;;;;;1.82;52.85;101963.72;342445;28;834;-70
2022/03/19 00:14:45;;;;;;;330.00;74.67;;;;;;;1.82;52.86;101963.72;342197;28;1327;-70
2022/03/19 00:14:55;;;;;;;325.13;75.38;;;;;;;1.79;53.00;101959.34;340309;28;1291;-70
2022/03/19 00:15:07;;;;;;;326.63;75.73;;;;;;;1.79;53.49;101963.63;341234;28;1192;-70
2022/03/19 00:15:17;;;;;;;326.83;76.28;;;;;;;1.78;53.33;101965.31;342395;28;913;-70
2022/03/19 00:15:28;;;;;;;327.97;76.77;;;;;;;1.79;53.24;101961.03;341037;28;1061;-70
2022/03/19 00:15:39;;;;;;;330.05;76.78;;;;;;;1.79;52.76;101961.03;339454;29;1236;-70
2022/03/19 00:15:50;;;;;;;332.27;75.70;;;;;;;1.80;52.60;101960.22;342273;28;1329;-69
2022/03/19 00:16:00;;;;;;;332.98;75.95;;;;;;;1.78;53.19;101964.44;342571;28;1011;-69
2022/03/19 00:16:11;;;;;;;329.02;75.43;;;;;;;1.78;53.07;101959.28;340847;28;1341;-70
2022/03/19 00:16:24;;;;;;;328.60;76.77;;;;;;;1.79;52.46;101961.91;339822;29;1014;-69
2022/03/19 00:16:35;;;;;;;323.30;75.32;;;;;;;1.83;53.02;101963.78;339961;29;1469;-69
2022/03/19 00:16:46;;;;;;;322.53;74.70;;;;;;;1.87;52.77;101964.75;341954;28;1185;-69
2022/03/19 00:16:57;;;;;;;324.83;74.82;;;;;;;1.87;52.70;101954.44;342481;28;826;-69
2022/03/19 00:17:10;;;;;;;329.17;75.97;;;;;;;1.86;52.72;101961.28;340885;28;1706;-69
2022/03/19 00:17:20;;;;;;;326.67;75.20;;;;;;;1.87;53.00;101962.16;341017;28;980;-69
2022/03/19 00:17:31;;;;;;;325.57;74.30;;;;;;;1.87;52.67;101957.88;340934;28;1192;-69
2022/03/19 00:17:41;;;;;;;325.90;74.70;;;;;;;1.87;53.30;101957.00;341945;28;1995;-69
2022/03/19 00:17:54;;;;;;;326.27;75.60;;;;;;;1.88;53.27;101956.19;340967;28;1288;-70
2022/03/19 00:18:04;;;;;;;325.80;76.95;;;;;;;1.86;53.01;101955.25;341040;28;914;-70
2022/03/19 00:18:16;;;;;;;325.23;76.68;;;;;;;1.87;52.70;101954.44;340727;28;1348;-70
2022/03/19 00:18:27;;;;;;;325.80;75.88;;;;;;;1.88;53.19;101966.50;338224;29;1116;-69
2022/03/19 00:18:38;;;;;;;331.20;76.53;;;;;;;1.88;53.12;101958.75;338448;29;822;-69
2022/03/19 00:18:48;;;;;;;329.50;76.85;;;;;;;1.90;52.64;101959.69;339009;29;1387;-70
2022/03/19 00:18:59;;;;;;;328.90;78.43;;;;;;;1.92;52.77;101963.19;337722;29;866;-70
2022/03/19 00:19:09;;;;;;;327.90;79.50;;;;;;;1.91;53.29;101961.44;337523;29;869;-71
2022/03/19 00:19:20;;;;;;;327.30;79.38;;;;;;;1.89;52.94;101957.94;337776;29;901;-69
2022/03/19 00:19:30;;;;;;;325.57;77.37;;;;;;;1.87;53.12;101957.00;341082;28;1097;-69
2022/03/19 00:19:41;;;;;;;325.65;76.35;;;;;;;1.87;53.22;101962.16;340975;28;999;-69
2022/03/19 00:19:51;;;;;;;327.10;76.55;;;;;;;1.85;52.62;101961.25;340924;28;964;-69
2022/03/19 00:20:02;;;;;;;329.03;78.13;;;;;;;1.87;53.13;101957.88;338550;29;1577;-69
2022/03/19 00:20:12;;;;;;;326.85;75.90;;;;;;;1.89;52.84;101965.69;340879;28;903;-69
2022/03/19 00:20:23;;;;;;;326.70;75.23;;;;;;;1.87;52.67;101959.59;340920;28;1927;-69
2022/03/19 00:20:35;;;;;;;325.92;74.03;;;;;;;1.85;52.84;101954.38;340979;28;901;-70
2022/03/19 00:20:45;;;;;;;326.60;75.22;;;;;;;1.87;53.30;101964.75;340995;28;1304;-69
2022/03/19 00:20:56;;;;;;;325.42;74.75;;;;;;;1.88;53.33;101956.19;341210;28;920;-69
2022/03/19 00:21:06;;;;;;;325.73;74.57;;;;;;;1.86;53.42;101963.00;338406;29;877;-69
2022/03/19 00:21:17;;;;;;;326.27;74.70;;;;;;;1.85;53.22;101953.50;341159;28;1064;-69
2022/03/19 00:21:27;;;;;;;327.40;75.73;;;;;;;1.84;53.22;101959.50;343639;28;898;-69
2022/03/19 00:21:37;;;;;;;324.38;75.43;;;;;;;1.83;53.43;101953.44;343721;28;864;-69
2022/03/19 00:21:48;;;;;;;323.37;75.17;;;;;;;1.80;53.56;101960.22;340952;28;933;-70
2022/03/19 00:21:58;;;;;;;322.88;74.70;;;;;;;1.77;53.74;101963.56;342447;28;1335;-70
2022/03/19 00:22:09;;;;;;;323.67;74.50;;;;;;;1.78;53.77;101954.13;340888;28;1184;-69
2022/03/19 00:22:19;;;;;;;324.75;74.75;;;;;;;1.75;53.86;101951.44;339649;29;855;-69
2022/03/19 00:22:30;;;;;;;329.77;75.90;;;;;;;1.73;54.07;101963.47;341972;28;2209;-69
2022/03/19 00:22:40;;;;;;;328.98;76.15;;;;;;;1.74;53.57;101960.00;340741;28;1416;-69
2022/03/19 00:22:50;;;;;;;329.20;74.77;;;;;;;1.75;53.63;101959.19;341202;28;878;-69
2022/03/19 00:23:01;;;;;;;325.17;75.22;;;;;;;1.77;53.88;101957.53;341151;28;905;-69
2022/03/19 00:23:11;;;;;;;325.23;74.40;;;;;;;1.79;53.28;101959.34;339725;28;1240;-69
2022/03/19 00:23:22;;;;;;;323.13;74.53;;;;;;;1.79;53.41;101961.91;343741;28;1061;-69
2022/03/19 00:23:32;;;;;;;322.80;74.67;;;;;;;1.82;53.82;101968.88;340625;28;1295;-69
2022/03/19 00:23:42;;;;;;;322.73;75.93;;;;;;;1.82;54.30;101958.56;338308;29;1297;-69
2022/03/19 00:23:53;;;;;;;325.60;77.80;;;;;;;1.79;54.11;101955.88;341618;28;1441;-69
2022/03/19 00:24:04;;;;;;;326.48;77.45;;;;;;;1.80;53.75;101957.63;341390;28;947;-70
2022/03/19 00:24:15;;;;;;;329.40;79.80;;;;;;;1.78;54.09;101954.13;337317;29;1441;-69
2022/03/19 00:24:25;;;;;;;329.05;80.32;;;;;;;1.78;54.00;101960.16;341875;28;1527;-70
2022/03/19 00:24:36;;;;;;;327.70;78.63;;;;;;;1.75;54.39;101957.47;343300;28;1200;-70
2022/03/19 00:24:46;;;;;;;327.95;77.68;;;;;;;1.75;54.13;101954.91;342588;28;881;-70
2022/03/19 00:24:57;;;;;;;326.38;77.22;;;;;;;1.77;54.31;101953.25;342455;28;951;-70
2022/03/19 00:25:09;;;;;;;326.88;77.82;;;;;;;1.74;53.71;101958.31;339479;28;1314;-70
2022/03/19 00:25:19;;;;;;;326.80;77.57;;;;;;;1.73;53.96;101961.75;342237;28;1077;-70
2022/03/19 00:25:29;;;;;;;327.88;76.90;;;;;;;1.73;54.84;101959.16;342463;28;1101;-70
2022/03/19 00:25:40;;;;;;;327.53;75.87;;;;;;;1.72;54.11;101960.00;342187;28;1218;-70
2022/03/19 00:25:50;;;;;;;326.53;76.40;;;;;;;1.71;54.48;101959.94;340799;28;814;-70
2022/03/19 00:26:01;;;;;;;325.50;76.90;;;;;;;1.69;54.19;101961.59;341043;28;1396;-70
2022/03/19 00:26:11;;;;;;;323.80;76.15;;;;;;;1.70;54.25;101960.78;342241;28;1258;-70
2022/03/19 00:26:22;;;;;;;323.33;75.50;;;;;;;1.72;54.38;101953.97;343583;28;1152;-70
2022/03/19 00:26:33;;;;;;;327.83;76.05;;;;;;;1.73;54.03;101955.72;342345;28;881;-70
2022/03/19 00:26:44;;;;;;;329.20;77.47;;;;;;;1.74;54.34;101957.44;341201;28;1620;-70
2022/03/19 00:26:54;;;;;;;326.92;78.40;;;;;;;1.74;54.79;101960.00;339068;29;926;-70
2022/03/19 00:27:04;;;;;;;326.80;78.77;;;;;;;1.76;53.95;101950.63;338716;29;1977;-69
2022/03/19 00:27:15;;;;;;;328.15;78.00;;;;;;;1.76;54.25;101960.94;341574;28;1914;-70
2022/03/19 00:27:25;;;;;;;327.00;76.33;;;;;;;1.76;53.96;101960.94;340991;28;1299;-70
2022/03/19 00:27:36;;;;;;;327.08;75.13;;;;;;;1.77;54.11;101960.13;342440;28;1303;-70
2022/03/19 00:27:46;;;;;;;327.03;76.80;;;;;;;1.74;54.29;101958.31;342521;28;898;-69
2022/03/19 00:27:56;;;;;;;328.48;76.97;;;;;;;1.74;54.31;101957.44;341101;28;1573;-69
2022/03/19 00:28:07;;;;;;;328.23;77.40;;;;;;;1.72;53.92;101954.84;342386;28;924;-69
2022/03/19 00:28:18;;;;;;;328.55;76.43;;;;;;;1.73;53.90;101955.72;341367;28;872;-69
2022/03/19 00:28:29;;;;;;;328.08;76.47;;;;;;;1.73;54.48;101953.13;340539;28;968;-69
2022/03/19 00:28:40;;;;;;;329.40;76.80;;;;;;;1.73;55.05;101956.59;342521;28;2351;-69
2022/03/19 00:28:50;;;;;;;326.92;76.93;;;;;;;1.73;54.95;101955.72;342351;28;1765;-69
2022/03/19 00:29:01;;;;;;;325.33;77.87;;;;;;;1.74;54.69;101952.28;341965;28;959;-69
2022/03/19 00:29:11;;;;;;;324.13;77.88;;;;;;;1.75;53.93;101959.19;339613;28;885;-70
2022/03/19 00:29:22;;;;;;;323.47;77.33;;;;;;;1.74;54.60;101957.44;337733;29;1316;-69
2022/03/19 00:29:32;;;;;;;324.25;76.50;;;;;;;1.71;54.40;101947.03;339429;29;1307;-69
2022/03/19 00:29:42;;;;;;;322.90;75.13;;;;;;;1.72;54.81;101961.69;341019;28;1385;-69
2022/03/19 00:29:53;;;;;;;323.52;75.03;;;;;;;1.72;54.01;101956.53;341073;28;885;-69
2022/03/19 00:30:04;;;;;;;323.03;74.97;;;;;;;1.69;54.65;101956.44;341050;28;965;-69
2022/03/19 00:30:15;;;;;;;324.13;74.88;;;;;;;1.70;54.16;101953.03;342131;28;896;-69
2022/03/19 00:30:25;;;;;;;325.97;76.07;;;;;;;1.71;54.31;101958.25;340799;28;1318;-70
2022/03/19 00:30:35;;;;;;;325.90;75.85;;;;;;;1.71;54.57;101957.38;340912;28;1012;-70
2022/03/19 00:30:47;;;;;;;328.07;76.90;;;;;;;1.69;55.37;101959.00;341184;28;945;-70
2022/03/19 00:30:57;;;;;;;324.55;74.57;;;;;;;1.71;54.90;101957.38;341162;28;881;-69
2022/03/19 00:31:08;;;;;;;323.53;74.53;;;;;;;1.70;54.08;101955.59;339633;28;908;-69
2022/03/19 00:31:18;;;;;;;322.88;74.88;;;;;;;1.68;54.96;101958.13;339502;28;1351;-69
2022/03/19 00:31:29;;;;;;;325.50;76.00;;;;;;;1.67;54.26;101954.69;340604;28;798;-70
2022/03/19 00:31:39;;;;;;;327.57;76.90;;;;;;;1.67;54.87;101952.09;341000;28;1222;-70
2022/03/19 00:31:50;;;;;;;326.83;75.60;;;;;;;1.66;55.51;101955.50;343272;28;1689;-70
2022/03/19 00:32:00;;;;;;;325.90;76.23;;;;;;;1.69;54.54;101948.69;342108;28;1518;-70
2022/03/19 00:32:10;;;;;;;325.53;76.07;;;;;;;1.71;54.43;101957.38;340645;28;1881;-70
2022/03/19 00:32:21;;;;;;;327.50;76.80;;;;;;;1.71;54.60;101952.19;339311;29;1451;-70
2022/03/19 00:32:31;;;;;;;327.00;76.13;;;;;;;1.73;54.55;101958.28;339660;29;1242;-70
2022/03/19 00:32:42;;;;;;;327.23;76.13;;;;;;;1.74;54.25;101957.44;343535;28;1573;-70
2022/03/19 00:32:52;;;;;;;325.60;75.77;;;;;;;1.74;54.22;101957.44;342259;28;1289;-70
2022/03/19 00:33:02;;;;;;;324.55;75.95;;;;;;;1.74;54.51;101954.84;342375;28;895;-70
2022/03/19 00:33:13;;;;;;;322.97;74.87;;;;;;;1.74;54.71;101950.56;339812;29;1193;-70
2022/03/19 00:33:23;;;;;;;325.35;75.10;;;;;;;1.77;54.77;101952.38;342207;28;891;-69
2022/03/19 00:33:34;;;;;;;325.50;75.57;;;;;;;1.75;54.31;101954.03;340759;28;1090;-70
2022/03/19 00:33:44;;;;;;;326.60;76.05;;;;;;;1.77;53.78;101952.38;340709;28;1096;-70
2022/03/19 00:33:55;;;;;;;323.10;76.43;;;;;;;1.76;54.17;101950.63;338892;28;1644;-70
2022/03/19 00:34:05;;;;;;;323.58;76.03;;;;;;;1.73;53.67;101946.25;339104;28;1001;-70
2022/03/19 00:34:16;;;;;;;325.67;76.57;;;;;;;1.74;53.55;101952.28;336369;28;1280;-69
2022/03/19 00:34:26;;;;;;;327.20;76.47;;;;;;;1.75;54.33;101948.88;339240;29;826;-70
2022/03/19 00:34:36;;;;;;;327.83;76.30;;;;;;;1.75;54.82;101951.44;343113;28;1231;-70
2022/03/19 00:34:47;;;;;;;324.77;75.47;;;;;;;1.75;54.66;101948.88;341874;28;920;-70
2022/03/19 00:34:57;;;;;;;324.70;74.75;;;;;;;1.74;53.83;101957.44;341072;28;1278;-70
2022/03/19 00:35:08;;;;;;;323.47;75.43;;;;;;;1.73;54.74;101951.44;340196;28;2068;-70
2022/03/19 00:35:19;;;;;;;325.23;76.53;;;;;;;1.74;54.00;101948.00;342175;28;907;-70
2022/03/19 00:35:29;;;;;;;324.52;76.57;;;;;;;1.75;54.52;101948.88;343285;28;1510;-69
2022/03/19 00:35:40;;;;;;;325.00;75.53;;;;;;;1.74;54.13;101949.69;343662;28;793;-69
2022/03/19 00:35:50;;;;;;;324.67;75.80;;;;;;;1.76;54.64;101955.78;343314;28;1232;-69
2022/03/19 00:36:00;;;;;;;325.07;76.17;;;;;;;1.76;54.23;101953.19;341063;28;1309;-69
2022/03/19 00:36:11;;;;;;;327.27;76.20;;;;;;;1.75;54.36;101951.44;340941;28;794;-69
2022/03/19 00:36:21;;;;;;;327.90;76.50;;;;;;;1.74;54.53;101952.28;342012;28;1362;-69
2022/03/19 00:36:32;;;;;;;326.30;76.32;;;;;;;1.74;54.42;101952.28;342575;28;1035;-69
2022/03/19 00:36:42;;;;;;;327.03;76.50;;;;;;;1.73;54.23;101956.59;340981;28;1193;-69
2022/03/19 00:36:53;;;;;;;327.50;76.80;;;;;;;1.72;54.99;101952.25;340374;28;2031;-69
2022/03/19 00:37:03;;;;;;;326.50;77.30;;;;;;;1.73;54.55;101948.84;339370;29;1489;-70
2022/03/19 00:37:14;;;;;;;325.93;77.13;;;;;;;1.73;54.23;101954.00;340960;28;1192;-69
2022/03/19 00:37:25;;;;;;;326.25;77.22;;;;;;;1.75;54.10;101954.03;341988;28;1476;-70
2022/03/19 00:37:46;;;;;;;327.63;77.07;;;;;;;1.72;54.59;101959.13;341341;28;881;-70
2022/03/19 00:37:56;;;;;;;331.58;76.63;;;;;;;1.73;54.66;101955.72;338225;29;1047;-70
2022/03/19 00:38:07;;;;;;;330.80;75.20;;;;;;;1.71;54.47;101953.09;340855;28;1555;-70
2022/03/19 00:38:17;;;;;;;330.43;75.10;;;;;;;1.69;54.57;101959.00;341981;28;882;-70
2022/03/19 00:38:28;;;;;;;327.08;75.38;;;;;;;1.69;55.29;101953.84;342409;28;841;-70
2022/03/19 00:38:39;;;;;;;327.27;75.90;;;;;;;1.67;55.03;101951.22;342157;28;1257;-70
2022/03/19 00:38:49;;;;;;;326.70;76.03;;;;;;;1.65;54.64;101953.75;340152;28;1191;-70
2022/03/19 00:39:00;;;;;;;329.02;77.38;;;;;;;1.62;54.81;101961.38;339450;28;937;-70
2022/03/19 00:39:10;;;;;;;328.50;77.63;;;;;;;1.59;54.63;101953.53;338741;28;1272;-70
2022/03/19 00:39:20;;;;;;;327.83;78.00;;;;;;;1.57;54.62;101960.34;340935;28;877;-70
2022/03/19 00:39:31;;;;;;;324.80;77.60;;;;;;;1.56;55.14;101957.72;340832;28;899;-70
2022/03/19 00:39:41;;;;;;;325.02;76.78;;;;;;;1.55;55.29;101956.84;342198;28;1083;-70
2022/03/19 00:39:52;;;;;;;326.87;76.33;;;;;;;1.55;54.73;101956.84;343554;28;886;-70
2022/03/19 00:40:04;;;;;;;329.65;77.45;;;;;;;1.54;54.77;101952.50;341060;28;879;-70
2022/03/19 00:40:15;;;;;;;329.45;78.22;;;;;;;1.53;54.58;101955.91;339652;29;1274;-70
2022/03/19 00:40:26;;;;;;;327.80;77.72;;;;;;;1.50;55.83;101958.41;340925;28;984;-69
2022/03/19 00:40:36;;;;;;;326.00;75.70;;;;;;;1.49;55.83;101955.75;340611;28;1970;-70
2022/03/19 00:40:47;;;;;;;325.02;74.95;;;;;;;1.50;55.00;101953.22;342202;28;865;-70
2022/03/19 00:40:57;;;;;;;325.17;74.90;;;;;;;1.51;55.14;101952.41;342869;28;1229;-70
2022/03/19 00:41:08;;;;;;;326.03;76.33;;;;;;;1.56;54.83;101958.59;342417;28;1192;-70
2022/03/19 00:41:18;;;;;;;328.25;76.47;;;;;;;1.54;54.77;101960.25;339218;28;1272;-70
2022/03/19 00:41:29;;;;;;;328.73;76.53;;;;;;;1.55;55.19;101956.84;339742;29;821;-70
2022/03/19 00:41:39;;;;;;;328.23;76.30;;;;;;;1.55;55.21;101955.97;340566;28;2118;-70
2022/03/19 00:41:50;;;;;;;327.80;76.70;;;;;;;1.58;55.21;101959.53;339216;29;1638;-70
2022/03/19 00:42:00;;;;;;;328.83;76.07;;;;;;;1.62;55.07;101958.81;341023;28;1178;-70
2022/03/19 00:42:10;;;;;;;329.53;76.17;;;;;;;1.62;55.09;101957.94;340752;28;1047;-69
2022/03/19 00:42:21;;;;;;;327.73;76.37;;;;;;;1.63;55.19;101955.41;342314;28;1036;-69
2022/03/19 00:42:31;;;;;;;325.08;76.15;;;;;;;1.65;55.21;101958.03;340914;28;1195;-69
2022/03/19 00:42:42;;;;;;;325.20;76.90;;;;;;;1.65;54.92;101958.03;343597;28;885;-70
2022/03/19 00:42:52;;;;;;;324.67;76.35;;;;;;;1.64;55.26;101956.28;343449;28;1227;-70
2022/03/19 00:43:03;;;;;;;325.55;76.88;;;;;;;1.65;55.09;101956.34;343674;28;1072;-70
2022/03/19 00:43:13;;;;;;;325.43;76.53;;;;;;;1.65;54.40;101953.75;343291;28;1212;-70
2022/03/19 00:43:24;;;;;;;327.23;76.70;;;;;;;1.65;54.92;101958.91;341902;28;952;-69
2022/03/19 00:43:36;;;;;;;327.07;77.87;;;;;;;1.64;54.74;101958.88;341012;28;853;-69
2022/03/19 00:43:47;;;;;;;325.48;77.93;;;;;;;1.65;54.96;101961.50;339735;28;1346;-69
2022/03/19 00:43:57;;;;;;;325.85;78.07;;;;;;;1.66;54.84;101954.63;337859;28;1224;-70
2022/03/19 00:44:08;;;;;;;326.70;77.27;;;;;;;1.67;54.73;101961.53;341546;28;1267;-70
2022/03/19 00:44:22;;;;;;;327.00;77.00;;;;;;;1.66;55.21;101957.22;339043;28;885;-69
2022/03/19 00:44:32;;;;;;;326.45;77.57;;;;;;;1.63;55.37;101957.97;342030;28;920;-69
2022/03/19 00:44:44;;;;;;;326.92;77.53;;;;;;;1.59;54.49;101953.53;340733;28;1241;-70
2022/03/19 00:44:54;;;;;;;326.90;76.68;;;;;;;1.59;54.59;101953.53;341002;28;1506;-70
2022/03/19 00:45:05;;;;;;;326.38;75.95;;;;;;;1.59;55.27;101953.53;342365;28;947;-70
2022/03/19 00:45:16;;;;;;;325.42;77.07;;;;;;;1.60;54.99;101957.00;342024;28;1336;-70
2022/03/19 00:45:28;;;;;;;326.07;78.37;;;;;;;1.59;54.76;101953.53;340030;28;887;-69
2022/03/19 00:45:39;;;;;;;328.30;78.57;;;;;;;1.61;54.72;101951.03;341844;28;2183;-69
2022/03/19 00:45:49;;;;;;;328.80;78.13;;;;;;;1.62;54.91;101958.81;341925;28;1325;-69
2022/03/19 00:46:00;;;;;;;327.30;77.00;;;;;;;1.63;55.32;101957.97;342060;28;918;-69
2022/03/19 00:46:11;;;;;;;325.60;76.88;;;;;;;1.66;54.32;101958.09;340462;28;825;-69
2022/03/19 00:46:22;;;;;;;324.73;76.75;;;;;;;1.66;54.53;101955.50;339337;28;1392;-69
2022/03/19 00:46:32;;;;;;;325.17;77.50;;;;;;;1.70;54.64;101955.59;340314;28;2430;-70
2022/03/19 00:46:43;;;;;;;326.00;76.97;;;;;;;1.67;54.46;101957.25;340922;28;1145;-70
2022/03/19 00:46:53;;;;;;;326.05;77.10;;;;;;;1.69;54.85;101953.84;340613;28;792;-70
2022/03/19 00:47:04;;;;;;;324.80;75.73;;;;;;;1.70;55.39;101955.59;340836;28;1675;-70
2022/03/19 00:47:14;;;;;;;323.77;75.65;;;;;;;1.69;54.84;101953.84;340984;28;1252;-70
2022/03/19 00:47:24;;;;;;;323.33;75.23;;;;;;;1.68;54.91;101952.97;342166;28;1211;-70
2022/03/19 00:47:35;;;;;;;324.65;75.55;;;;;;;1.70;54.16;101956.50;341576;28;921;-70
2022/03/19 00:47:46;;;;;;;325.52;76.35;;;;;;;1.69;54.30;101952.16;341966;28;1185;-69
2022/03/19 00:47:56;;;;;;;326.50;77.23;;;;;;;1.70;54.15;101961.66;341935;28;861;-69
2022/03/19 00:48:07;;;;;;;326.90;76.60;;;;;;;1.69;54.00;101953.84;342245;28;1492;-70
2022/03/19 00:48:17;;;;;;;326.67;76.13;;;;;;;1.69;54.39;101953.84;342198;28;1427;-70
2022/03/19 00:48:27;;;;;;;326.63;75.05;;;;;;;1.70;55.21;101960.78;342322;28;946;-70
2022/03/19 00:48:38;;;;;;;325.37;75.33;;;;;;;1.70;54.51;101956.50;339926;28;910;-70
2022/03/19 00:48:48;;;;;;;326.10;75.40;;;;;;;1.71;54.51;101962.53;342043;28;951;-70
2022/03/19 00:48:59;;;;;;;326.77;76.50;;;;;;;1.71;54.45;101960.81;340643;28;813;-70
2022/03/19 00:49:10;;;;;;;328.67;78.28;;;;;;;1.69;55.43;101954.72;340448;28;822;-70
2022/03/19 00:49:20;;;;;;;329.20;78.07;;;;;;;1.67;54.45;101959.84;341117;28;1309;-70
2022/03/19 00:49:30;;;;;;;328.73;77.53;;;;;;;1.67;54.39;101957.25;343531;28;1214;-70
2022/03/19 00:49:41;;;;;;;328.58;77.03;;;;;;;1.67;54.10;101962.41;339509;28;1561;-70
2022/03/19 00:49:51;;;;;;;328.07;76.73;;;;;;;1.66;54.60;101960.66;342148;28;1209;-70